createdAt,value
2022-09-21T00:03:03.353Z,100.00
2022-09-21T00:08:08.609Z,100.00
2022-09-21T00:13:12.740Z,100.00
2022-09-21T00:18:15.844Z,100.00
2022-09-21T00:23:20.384Z,100.00
2022-09-21T00:28:23.591Z,100.00
2022-09-21T00:33:26.905Z,100.00
2022-09-21T00:38:30.520Z,100.00
2022-09-21T00:43:50.224Z,100.00
2022-09-21T00:48:54.243Z,100.00
2022-09-21T00:54:03.289Z,100.00
2022-09-21T00:59:07.522Z,100.00
2022-09-21T01:04:12.164Z,100.00
2022-09-21T01:09:16.394Z,100.00
2022-09-21T01:14:40.288Z,100.00
2022-09-21T01:20:13.501Z,100.00
2022-09-21T01:25:55.722Z,100.00
2022-09-21T01:31:06.305Z,100.00
2022-09-21T01:36:15.145Z,100.00
2022-09-21T01:41:23.780Z,100.00
2022-09-21T01:46:31.203Z,100.00
2022-09-21T01:51:36.510Z,100.00
2022-09-21T01:56:46.753Z,100.00
2022-09-21T02:01:55.338Z,100.00
2022-09-21T02:06:59.380Z,100.00
2022-09-21T02:12:02.898Z,100.00
2022-09-21T02:17:32.522Z,100.00
2022-09-21T02:22:49.692Z,100.00
2022-09-21T02:28:21.027Z,100.00
2022-09-21T02:33:34.988Z,100.00
2022-09-21T02:38:55.300Z,100.00
2022-09-21T02:44:33.973Z,100.00
2022-09-21T02:49:52.024Z,100.00
2022-09-21T02:54:56.433Z,100.00
2022-09-21T02:59:59.740Z,100.00
2022-09-21T03:05:03.152Z,100.00
2022-09-21T03:10:08.540Z,100.00
2022-09-21T03:15:11.824Z,100.00
2022-09-21T03:20:15.747Z,100.00
2022-09-21T03:25:18.955Z,100.00
2022-09-21T03:30:26.669Z,100.00
2022-09-21T03:35:30.389Z,100.00
2022-09-21T03:40:34.033Z,100.00
2022-09-21T03:45:38.348Z,100.00
2022-09-21T03:50:41.448Z,100.00
2022-09-21T03:55:44.657Z,100.00
2022-09-21T04:00:47.865Z,100.00
2022-09-21T04:05:51.179Z,100.00
2022-09-21T04:10:55.819Z,100.00
2022-09-21T04:15:59.092Z,100.00
2022-09-21T04:21:02.337Z,100.00
2022-09-21T04:26:06.468Z,100.00
2022-09-21T04:31:09.727Z,100.00
2022-09-21T04:36:12.986Z,100.00
2022-09-21T04:41:17.627Z,100.00
2022-09-21T04:46:21.694Z,100.00
2022-09-21T04:51:24.964Z,100.00
2022-09-21T04:56:28.392Z,100.00
2022-09-21T05:01:31.819Z,100.00
2022-09-21T05:06:35.205Z,100.00
2022-09-21T05:11:39.334Z,100.00
2022-09-21T05:16:42.746Z,100.00
2022-09-21T05:21:46.779Z,100.00
2022-09-21T05:26:50.085Z,100.00
2022-09-21T05:32:18.294Z,100.00
2022-09-21T05:37:40.194Z,100.00
2022-09-21T05:42:43.865Z,100.00
2022-09-21T05:47:59.547Z,100.00
2022-09-21T05:53:34.601Z,100.00
2022-09-21T05:58:57.393Z,100.00
2022-09-21T06:04:02.767Z,100.00
2022-09-21T06:09:06.246Z,100.00
2022-09-21T06:14:09.553Z,100.00
2022-09-21T06:19:14.091Z,100.00
2022-09-21T06:24:17.300Z,100.00
2022-09-21T06:29:23.914Z,100.00
2022-09-21T06:34:27.200Z,100.00
2022-09-21T06:39:30.734Z,100.00
2022-09-21T06:44:33.924Z,100.00
2022-09-21T06:49:41.751Z,100.00
2022-09-21T06:54:45.768Z,100.00
2022-09-21T06:59:49.651Z,100.00
2022-09-21T07:04:52.900Z,100.00
2022-09-21T07:10:15.829Z,100.00
2022-09-21T07:15:20.824Z,100.00
2022-09-21T07:20:24.235Z,100.00
2022-09-21T07:25:27.441Z,100.00
2022-09-21T07:30:30.752Z,100.00
2022-09-21T07:35:34.473Z,100.00
2022-09-21T07:40:37.940Z,100.00
2022-09-21T07:45:41.323Z,100.00
2022-09-21T07:50:44.720Z,100.00
2022-09-21T07:55:47.920Z,100.00
2022-09-21T08:00:51.569Z,100.00
2022-09-21T08:05:54.748Z,100.00
2022-09-21T08:11:06.252Z,100.00
2022-09-21T08:16:10.477Z,100.00
2022-09-21T08:21:14.613Z,100.00
2022-09-21T08:26:20.279Z,100.00
2022-09-21T08:31:24.677Z,100.00
2022-09-21T08:36:28.232Z,100.00
2022-09-21T08:41:43.626Z,100.00
2022-09-21T08:46:53.020Z,100.00
2022-09-21T08:52:00.999Z,100.00
2022-09-21T08:57:06.137Z,100.00
2022-09-21T09:02:20.248Z,100.00
2022-09-21T09:07:44.312Z,100.00
2022-09-21T09:13:03.702Z,100.00
2022-09-21T09:18:43.699Z,100.00
2022-09-21T09:24:05.314Z,100.00
2022-09-21T09:29:24.037Z,100.00
2022-09-21T09:34:35.794Z,100.00
2022-09-21T09:39:41.583Z,100.00
2022-09-21T09:45:08.937Z,100.00
2022-09-21T09:50:19.879Z,100.00
2022-09-21T09:55:30.561Z,100.00
2022-09-21T10:00:34.125Z,100.00
2022-09-21T10:05:41.837Z,100.00
2022-09-21T10:10:45.050Z,100.00
2022-09-21T10:15:56.204Z,100.00
2022-09-21T10:21:05.699Z,100.00
2022-09-21T10:26:11.261Z,100.00
2022-09-21T10:31:22.909Z,100.00
2022-09-21T10:36:31.092Z,100.00
2022-09-21T10:41:34.303Z,100.00
2022-09-21T10:46:38.030Z,100.00
2022-09-21T10:51:41.227Z,100.00
2022-09-21T10:56:54.048Z,100.00
2022-09-21T11:01:59.992Z,100.00
2022-09-21T11:07:22.700Z,99.77
2022-09-21T11:12:56.322Z,96.22
2022-09-21T11:18:33.835Z,94.22
2022-09-21T11:23:37.246Z,94.29
2022-09-21T11:28:52.641Z,93.00
2022-09-21T11:34:20.324Z,89.66
2022-09-21T11:40:07.907Z,88.12
2022-09-21T11:45:46.096Z,91.35
2022-09-21T11:50:54.429Z,92.85
2022-09-21T11:56:19.246Z,93.19
2022-09-21T12:01:45.799Z,93.10
2022-09-21T12:07:01.100Z,95.85
2022-09-21T12:12:23.145Z,97.05
2022-09-21T12:17:58.809Z,96.84
2022-09-21T12:23:11.134Z,97.32
2022-09-21T12:28:41.993Z,96.81
2022-09-21T12:34:01.786Z,95.36
2022-09-21T12:39:36.867Z,91.82
2022-09-21T12:44:53.261Z,91.59
2022-09-21T12:50:03.843Z,95.97
2022-09-21T12:55:34.598Z,100.00
2022-09-21T13:00:54.189Z,100.00
2022-09-21T13:06:15.622Z,100.00
2022-09-21T13:11:22.540Z,100.00
2022-09-21T13:16:38.767Z,100.00
2022-09-21T13:21:42.759Z,100.00
2022-09-21T13:26:57.038Z,100.00
2022-09-21T13:32:12.368Z,100.00
2022-09-21T13:37:19.012Z,100.00
2022-09-21T13:42:35.017Z,100.00
2022-09-21T13:47:41.023Z,100.00
2022-09-21T13:52:49.130Z,100.00
2022-09-21T13:57:55.993Z,100.00
2022-09-21T14:03:04.559Z,100.00
2022-09-21T14:08:17.091Z,100.00
2022-09-21T14:13:29.085Z,100.00
2022-09-21T14:18:38.223Z,100.00
2022-09-21T14:24:27.334Z,100.00
2022-09-21T14:29:44.670Z,100.00
2022-09-21T14:34:50.793Z,100.00
2022-09-21T14:39:55.172Z,100.00
2022-09-21T14:45:31.244Z,100.00
2022-09-21T14:50:52.371Z,100.00
2022-09-21T14:56:10.634Z,100.00
2022-09-21T15:01:36.269Z,100.00
2022-09-21T15:07:18.418Z,99.91
2022-09-21T15:12:45.354Z,100.00
2022-09-21T15:17:59.871Z,100.00
2022-09-21T15:23:19.179Z,99.61
2022-09-21T15:28:23.141Z,94.05
2022-09-21T15:33:27.473Z,91.96
2022-09-21T15:38:35.908Z,90.79
2022-09-21T15:43:40.960Z,92.48
2022-09-21T15:48:44.778Z,96.23
2022-09-21T15:53:52.801Z,97.45
2022-09-21T15:59:09.423Z,97.28
2022-09-21T16:04:22.299Z,99.03
2022-09-21T16:09:29.768Z,99.39
2022-09-21T16:14:51.922Z,100.00
2022-09-21T16:19:55.129Z,100.00
2022-09-21T16:25:00.676Z,100.00
2022-09-21T16:30:04.719Z,100.00
2022-09-21T16:35:40.490Z,100.00
2022-09-21T16:40:43.869Z,100.00
2022-09-21T16:45:47.623Z,100.00
2022-09-21T16:50:54.111Z,100.00
2022-09-21T16:55:57.625Z,100.00
2022-09-21T17:01:01.202Z,100.00
2022-09-21T17:06:06.109Z,100.00
2022-09-21T17:11:09.402Z,100.00
2022-09-21T17:16:13.559Z,100.00
2022-09-21T17:21:17.456Z,100.00
2022-09-21T17:26:21.583Z,100.00
2022-09-21T17:31:25.539Z,100.00
2022-09-21T17:36:28.721Z,100.00
2022-09-21T17:41:40.528Z,100.00
2022-09-21T17:46:59.198Z,100.00
2022-09-21T17:52:21.865Z,100.00
2022-09-21T17:57:50.056Z,100.00
2022-09-21T18:02:56.606Z,100.00
2022-09-21T18:08:00.501Z,100.00
2022-09-21T18:13:32.069Z,100.00
2022-09-21T18:18:47.045Z,100.00
2022-09-21T18:24:05.382Z,100.00
2022-09-21T18:29:41.851Z,100.00
2022-09-21T18:35:00.854Z,100.00
2022-09-21T18:40:28.564Z,100.00
2022-09-21T18:45:57.503Z,100.00
2022-09-21T18:51:12.126Z,100.00
2022-09-21T18:56:16.153Z,100.00
2022-09-21T19:01:22.327Z,100.00
2022-09-21T19:06:26.669Z,100.00
2022-09-21T19:11:37.348Z,100.00
2022-09-21T19:16:48.497Z,100.00
2022-09-21T19:22:03.019Z,100.00
2022-09-21T19:27:43.090Z,100.00
2022-09-21T19:32:46.401Z,100.00
2022-09-21T19:37:56.571Z,100.00
2022-09-21T19:42:59.686Z,100.00
2022-09-21T19:48:09.162Z,100.00
2022-09-21T19:53:31.901Z,100.00
2022-09-21T19:58:54.051Z,100.00
2022-09-21T20:03:57.776Z,100.00
2022-09-21T20:09:15.215Z,100.00
2022-09-21T20:14:42.795Z,100.00
2022-09-21T20:20:20.413Z,100.00
2022-09-21T20:25:48.092Z,100.00
2022-09-21T20:30:51.491Z,100.00
2022-09-21T20:35:56.162Z,100.00
2022-09-21T20:40:59.661Z,100.00
2022-09-21T20:46:03.888Z,100.00
2022-09-21T20:51:07.311Z,100.00
2022-09-21T20:56:12.257Z,100.00
2022-09-21T21:01:15.517Z,100.00
2022-09-21T21:06:19.622Z,100.00
2022-09-21T21:11:23.419Z,100.00
2022-09-21T21:16:26.768Z,100.00
2022-09-21T21:21:30.345Z,100.00
2022-09-21T21:26:57.434Z,100.00
2022-09-21T21:31:56.813Z,100.00
2022-09-21T21:37:00.874Z,100.00
2022-09-21T21:42:04.898Z,100.00
2022-09-21T21:47:27.750Z,100.00
2022-09-21T21:52:31.686Z,100.00
2022-09-21T21:57:35.097Z,100.00
2022-09-21T22:02:38.378Z,100.00
2022-09-21T22:07:41.615Z,100.00
2022-09-21T22:12:45.340Z,100.00
2022-09-21T22:17:49.568Z,100.00
2022-09-21T22:22:52.674Z,100.00
2022-09-21T22:27:56.398Z,100.00
2022-09-21T22:32:59.605Z,100.00
2022-09-21T22:38:02.914Z,100.00
2022-09-21T22:43:06.224Z,100.00
2022-09-21T22:48:09.542Z,100.00
2022-09-21T22:53:12.847Z,100.00
2022-09-21T22:58:16.159Z,100.00
2022-09-21T23:03:19.467Z,100.00
2022-09-21T23:08:22.676Z,100.00
2022-09-21T23:13:26.805Z,100.00
2022-09-21T23:18:30.323Z,100.00
2022-09-21T23:23:34.354Z,100.00
2022-09-21T23:28:39.291Z,100.00
2022-09-21T23:33:51.690Z,100.00
2022-09-21T23:38:55.550Z,100.00
2022-09-21T23:43:59.675Z,100.00
2022-09-21T23:49:03.907Z,100.00
2022-09-21T23:54:07.935Z,100.00
2022-09-21T23:59:11.654Z,100.00
